Time;durP1;ratioP1;P1;durP2;ratioP2;P2;SDS_P1;SDS_P2;PMS_P1;PMS_P2;Temp;Humidity;BMP_temperature;BMP_pressure;BME280_temperature;BME280_humidity;BME280_pressure;Samples;Min_cycle;Max_cycle;Signal;HPM_P1;HPM_P2
2022/05/03 00:01:03;;;;;;;1999.90;999.90;;;13.20;99.90;;;;;;4918994;28;20464;-73
2022/05/03 00:03:43;;;;;;;1999.90;999.90;;;13.20;99.90;;;;;;4918870;28;20411;-73
2022/05/03 00:06:28;;;;;;;1999.90;999.90;;;13.10;99.90;;;;;;4918666;28;20413;-73
2022/05/03 00:09:04;;;;;;;1999.90;999.90;;;13.10;99.90;;;;;;4918966;28;20442;-73
2022/05/03 00:11:50;;;;;;;1999.90;999.90;;;13.10;99.90;;;;;;4918800;28;20409;-73
2022/05/03 00:14:28;;;;;;;1999.90;999.90;;;13.20;99.90;;;;;;4918439;28;20487;-73
2022/05/03 00:16:55;;;;;;;1999.90;999.90;;;13.20;99.90;;;;;;4918714;28;20406;-73
2022/05/03 00:19:20;;;;;;;1999.90;999.90;;;13.30;99.90;;;;;;4918707;28;20413;-73
2022/05/03 00:21:46;;;;;;;1999.90;999.90;;;13.30;99.90;;;;;;4918710;28;20539;-73
2022/05/03 00:24:13;;;;;;;1999.90;999.90;;;13.40;99.90;;;;;;4918428;28;20746;-73
2022/05/03 00:26:38;;;;;;;1999.90;999.90;;;13.40;99.90;;;;;;4918609;28;20409;-74
2022/05/03 00:29:04;;;;;;;1999.90;999.90;;;13.40;99.90;;;;;;4918372;28;20406;-73
2022/05/03 00:31:31;;;;;;;1999.90;999.90;;;13.40;99.90;;;;;;4914495;28;20168;-73
2022/05/03 00:33:57;;;;;;;1999.90;999.90;;;13.30;99.90;;;;;;4915348;28;20191;-73
2022/05/03 00:36:24;;;;;;;1999.90;999.90;;;13.40;99.90;;;;;;4915287;28;21001;-73
2022/05/03 00:38:51;;;;;;;1999.90;999.90;;;13.30;99.90;;;;;;4915423;28;20849;-73
2022/05/03 00:41:45;;;;;;;1999.90;999.90;;;13.30;99.90;;;;;;4915434;28;20421;-73
2022/05/03 00:47:17;;;;;;;1999.90;999.90;;;13.20;99.90;;;;;;4915188;29;20431;-73
2022/05/03 00:50:06;;;;;;;1999.90;999.90;;;13.30;99.90;;;;;;4915154;28;20499;-73
2022/05/03 00:52:38;;;;;;;1999.90;999.90;;;13.20;99.90;;;;;;4915337;28;20410;-73
2022/05/03 00:55:45;;;;;;;1999.90;999.90;;;13.20;99.90;;;;;;4914891;28;20422;-73
2022/05/03 00:58:34;;;;;;;1999.90;999.90;;;13.20;99.90;;;;;;4920444;28;20482;-73
2022/05/03 01:01:24;;;;;;;1999.90;999.90;;;13.10;99.90;;;;;;4915052;28;20430;-74
2022/05/03 01:04:08;;;;;;;1999.90;999.90;;;13.00;99.90;;;;;;4915318;28;20409;-74
2022/05/03 01:06:50;;;;;;;1999.90;999.90;;;13.00;99.90;;;;;;4915988;28;20407;-73
2022/05/03 01:09:23;;;;;;;1999.90;999.90;;;13.00;99.90;;;;;;4916077;28;20409;-74
2022/05/03 01:12:13;;;;;;;1999.90;999.90;;;12.90;99.90;;;;;;4916092;28;20417;-74
2022/05/03 01:14:47;;;;;;;1999.90;999.90;;;12.90;99.90;;;;;;4915593;28;20425;-73
2022/05/03 01:17:41;;;;;;;1999.90;999.90;;;12.80;99.90;;;;;;4915905;28;20410;-73
2022/05/03 01:20:08;;;;;;;1999.90;999.90;;;12.70;99.90;;;;;;4981094;28;20424;-74
2022/05/03 01:22:52;;;;;;;1999.90;999.90;;;12.60;99.90;;;;;;4915639;28;20500;-74
2022/05/03 01:25:39;;;;;;;1999.90;999.90;;;12.50;99.90;;;;;;4915173;28;20467;-73
2022/05/03 01:28:18;;;;;;;1999.90;999.90;;;12.50;99.90;;;;;;4980987;28;20435;-74
2022/05/03 01:30:49;;;;;;;1999.90;999.90;;;12.30;99.90;;;;;;4915391;28;20406;-74
2022/05/03 01:33:22;;;;;;;1999.90;999.90;;;12.20;99.90;;;;;;4915622;28;20488;-74
2022/05/03 01:35:56;;;;;;;1999.90;999.90;;;12.00;99.90;;;;;;4914847;28;20432;-74
2022/05/03 01:38:52;;;;;;;1999.90;999.90;;;12.00;99.90;;;;;;4915430;28;20417;-74
2022/05/03 01:41:46;;;;;;;1999.90;999.90;;;12.00;99.90;;;;;;4915088;28;20463;-74
2022/05/03 01:44:27;;;;;;;1999.90;999.90;;;11.90;99.90;;;;;;4914732;28;20461;-73
2022/05/03 01:46:59;;;;;;;1999.90;999.90;;;11.80;99.90;;;;;;4915155;28;20414;-73
2022/05/03 01:52:58;;;;;;;1999.90;999.90;;;11.80;99.90;;;;;;4914869;29;20487;-74
2022/05/03 01:56:01;;;;;;;1999.90;999.90;;;11.70;99.90;;;;;;4914525;28;20430;-73
2022/05/03 01:58:45;;;;;;;1999.90;999.90;;;11.50;99.90;;;;;;4914775;28;20506;-73
2022/05/03 02:01:35;;;;;;;1999.90;999.90;;;11.40;99.90;;;;;;4914703;28;20412;-73
2022/05/03 02:04:25;;;;;;;1999.90;999.90;;;11.30;99.90;;;;;;4914254;28;20488;-74
2022/05/03 02:07:24;;;;;;;1999.90;999.90;;;11.30;99.90;;;;;;4914564;28;20435;-73
2022/05/03 02:09:53;;;;;;;1999.90;999.90;;;11.20;99.90;;;;;;4914644;28;20408;-73
2022/05/03 02:12:21;;;;;;;1999.90;999.90;;;11.10;99.90;;;;;;4914578;28;20944;-73
2022/05/03 02:14:50;;;;;;;1999.90;999.90;;;11.00;99.90;;;;;;4914111;28;20440;-74
2022/05/03 02:17:37;;;;;;;1999.90;999.90;;;11.00;99.90;;;;;;4914476;28;20417;-73
2022/05/03 02:20:17;;;;;;;1999.90;999.90;;;11.00;99.90;;;;;;4914505;28;20552;-74
2022/05/03 02:23:00;;;;;;;1999.90;999.90;;;11.00;99.90;;;;;;4914159;28;20440;-73
2022/05/03 02:25:34;;;;;;;1999.90;999.90;;;10.80;99.90;;;;;;4913836;28;20468;-73
2022/05/03 02:28:07;;;;;;;1999.90;999.90;;;10.70;99.90;;;;;;4914279;28;20414;-74
2022/05/03 02:30:35;;;;;;;1999.90;999.90;;;10.80;99.90;;;;;;4913942;28;20411;-73
2022/05/03 02:33:18;;;;;;;1999.90;999.90;;;10.70;99.90;;;;;;4914112;28;20403;-74
2022/05/03 02:35:51;;;;;;;1999.90;999.90;;;10.60;99.90;;;;;;4913761;28;20427;-74
2022/05/03 02:38:24;;;;;;;1999.90;999.90;;;10.50;99.90;;;;;;4914268;28;20409;-74
2022/05/03 02:40:52;;;;;;;1999.90;999.90;;;10.40;99.90;;;;;;4979291;28;20423;-73
2022/05/03 02:43:20;;;;;;;1999.90;999.90;;;10.30;99.90;;;;;;4979109;28;20482;-74
2022/05/03 02:46:13;;;;;;;1999.90;999.90;;;10.30;99.90;;;;;;4913210;28;20521;-74
2022/05/03 02:48:53;;;;;;;1999.90;999.90;;;10.10;99.90;;;;;;4913759;28;20484;-74
2022/05/03 02:51:26;;;;;;;1999.90;999.90;;;10.00;99.90;;;;;;4913892;28;20903;-74
2022/05/03 02:53:55;;;;;;;1999.90;999.90;;;9.90;99.90;;;;;;4912954;28;20404;-73
2022/05/03 02:56:27;;;;;;;1999.90;999.90;;;9.90;99.90;;;;;;4913424;28;20408;-73
2022/05/03 02:59:02;;;;;;;1999.90;999.90;;;9.80;99.90;;;;;;4913502;28;20396;-73
2022/05/03 03:02:23;;;;;;;1999.90;999.90;;;9.80;99.90;;;;;;4979100;28;20985;-73
2022/05/03 03:05:06;;;;;;;1999.90;999.90;;;9.70;99.90;;;;;;4974827;28;20476;-73
2022/05/03 03:07:44;;;;;;;1999.90;999.90;;;9.60;99.90;;;;;;4920858;28;20767;-73
2022/05/03 03:10:19;;;;;;;1999.90;999.90;;;9.60;99.90;;;;;;4913270;28;20901;-73
2022/05/03 03:13:06;;;;;;;1999.90;999.90;;;9.60;99.90;;;;;;4913100;28;20411;-73
2022/05/03 03:15:39;;;;;;;1999.90;999.90;;;9.50;99.90;;;;;;4912808;28;20432;-73
2022/05/03 03:18:11;;;;;;;1999.90;999.90;;;9.40;99.90;;;;;;4913174;28;20845;-73
2022/05/03 03:20:43;;;;;;;1999.90;999.90;;;9.30;99.90;;;;;;4913169;28;20403;-73
2022/05/03 03:23:18;;;;;;;1999.90;999.90;;;9.30;99.90;;;;;;4913163;28;20447;-73
2022/05/03 03:25:47;;;;;;;1999.90;999.90;;;9.30;99.90;;;;;;4912600;28;20462;-73
2022/05/03 03:28:16;;;;;;;1999.90;999.90;;;9.30;99.90;;;;;;4912947;28;20405;-73
2022/05/03 03:30:44;;;;;;;1999.90;999.90;;;9.20;99.90;;;;;;4912913;28;20416;-73
2022/05/03 03:33:12;;;;;;;1999.90;999.90;;;9.30;99.90;;;;;;4912947;28;20404;-73
2022/05/03 03:35:41;;;;;;;1999.90;999.90;;;9.30;99.90;;;;;;4912606;28;20439;-73
2022/05/03 03:38:09;;;;;;;1999.90;999.90;;;9.20;99.90;;;;;;4912953;28;20412;-73
2022/05/03 03:40:35;;;;;;;1999.90;999.90;;;9.20;99.90;;;;;;4912764;28;20411;-73
2022/05/03 03:43:00;;;;;;;1999.90;999.90;;;9.20;99.90;;;;;;4912707;28;20422;-74
2022/05/03 03:45:27;;;;;;;1999.90;999.90;;;9.10;99.90;;;;;;4912793;28;20569;-74
2022/05/03 03:47:55;;;;;;;1999.90;999.90;;;9.10;99.90;;;;;;4912826;28;20199;-73
2022/05/03 03:50:22;;;;;;;1999.90;999.90;;;9.10;99.90;;;;;;4977801;28;20419;-73
2022/05/03 03:52:48;;;;;;;1999.90;999.90;;;9.10;99.90;;;;;;4913012;28;20452;-73
2022/05/03 03:55:14;;;;;;;1999.90;999.90;;;9.20;99.90;;;;;;4912515;28;20434;-73
2022/05/03 03:57:40;;;;;;;1999.90;999.90;;;9.20;99.90;;;;;;4912802;28;20431;-73
2022/05/03 04:00:24;;;;;;;1999.90;999.90;;;9.20;99.90;;;;;;4912897;28;20205;-73
2022/05/03 04:02:50;;;;;;;1999.90;999.90;;;9.30;99.90;;;;;;4912990;28;20418;-73
2022/05/03 04:05:19;;;;;;;1999.90;999.90;;;9.20;99.90;;;;;;4913195;28;20456;-73
2022/05/03 04:07:45;;;;;;;1999.90;999.90;;;9.20;99.90;;;;;;4916140;28;20499;-73
2022/05/03 04:10:11;;;;;;;1999.90;999.90;;;9.30;99.90;;;;;;4916222;28;20495;-74
2022/05/03 04:12:36;;;;;;;1999.90;999.90;;;9.40;99.90;;;;;;4915949;28;20207;-73
2022/05/03 04:15:02;;;;;;;1999.90;999.90;;;9.40;99.90;;;;;;4915685;28;20196;-73
2022/05/03 04:17:28;;;;;;;1999.90;999.90;;;9.40;99.90;;;;;;4916129;28;20187;-74
2022/05/03 04:19:53;;;;;;;1999.90;999.90;;;9.40;99.90;;;;;;4915958;28;20782;-73
2022/05/03 04:22:29;;;;;;;1999.90;999.90;;;9.30;99.90;;;;;;4915959;28;20241;-74
2022/05/03 04:24:55;;;;;;;1999.90;999.90;;;9.20;99.90;;;;;;4915363;28;20203;-74
2022/05/03 04:27:21;;;;;;;1999.90;999.90;;;9.20;99.90;;;;;;4915877;28;20415;-74
2022/05/03 04:29:51;;;;;;;1999.90;999.90;;;9.10;99.90;;;;;;4916000;28;20423;-73
2022/05/03 04:32:17;;;;;;;1999.90;999.90;;;9.10;99.90;;;;;;4916228;28;20412;-74
2022/05/03 04:34:43;;;;;;;1999.90;999.90;;;9.00;99.90;;;;;;4915855;28;20494;-73
2022/05/03 04:37:09;;;;;;;1999.90;999.90;;;9.00;99.90;;;;;;4916085;28;20184;-73
2022/05/03 04:39:34;;;;;;;1999.90;999.90;;;9.00;99.90;;;;;;4916205;28;20188;-74
2022/05/03 04:42:00;;;;;;;1999.90;999.90;;;9.00;99.90;;;;;;4916075;28;20699;-73
2022/05/03 04:44:27;;;;;;;1999.90;999.90;;;9.00;99.90;;;;;;4915291;28;20468;-73
2022/05/03 04:46:52;;;;;;;1999.90;999.90;;;9.00;99.90;;;;;;4915601;28;20254;-73
2022/05/03 04:49:18;;;;;;;1999.90;999.90;;;8.90;99.90;;;;;;4915700;28;20439;-73
2022/05/03 04:51:43;;;;;;;1999.90;999.90;;;8.90;99.90;;;;;;4915675;28;20222;-74
2022/05/03 04:54:09;;;;;;;1999.90;999.90;;;9.00;99.90;;;;;;4915172;28;20208;-73
2022/05/03 04:56:35;;;;;;;1999.90;999.90;;;8.90;99.90;;;;;;4915658;28;20175;-73
2022/05/03 04:59:02;;;;;;;1999.90;999.90;;;9.00;99.90;;;;;;4915631;28;20194;-73
2022/05/03 05:01:28;;;;;;;1999.90;999.90;;;9.00;99.90;;;;;;4915897;28;20980;-74
2022/05/03 05:03:55;;;;;;;1999.90;999.90;;;9.00;99.90;;;;;;4915293;28;20415;-73
2022/05/03 05:06:21;;;;;;;1999.90;999.90;;;9.00;99.90;;;;;;4915242;28;20411;-73
2022/05/03 05:08:46;;;;;;;1999.90;999.90;;;9.00;99.90;;;;;;4915473;28;20776;-73
2022/05/03 05:11:12;;;;;;;1999.90;999.90;;;8.90;99.90;;;;;;4915194;28;20405;-74
2022/05/03 05:13:38;;;;;;;1999.90;999.90;;;8.90;99.90;;;;;;4915201;28;20898;-73
2022/05/03 05:16:06;;;;;;;1999.90;999.90;;;8.90;99.90;;;;;;4914384;28;20185;-73
2022/05/03 05:18:32;;;;;;;1999.90;999.90;;;9.00;99.90;;;;;;4914951;28;20416;-74
2022/05/03 05:20:58;;;;;;;1999.90;999.90;;;9.00;99.90;;;;;;4914980;28;20419;-74
2022/05/03 05:23:24;;;;;;;1999.90;999.90;;;8.90;99.90;;;;;;4915039;28;20412;-73
2022/05/03 05:25:51;;;;;;;1999.90;999.90;;;8.90;99.90;;;;;;4914372;28;21049;-74
2022/05/03 05:28:18;;;;;;;1999.90;999.90;;;9.00;99.90;;;;;;4914943;28;20777;-73
2022/05/03 05:30:44;;;;;;;1999.90;999.90;;;9.00;99.90;;;;;;4914722;28;20412;-73
2022/05/03 05:33:10;;;;;;;1999.90;999.90;;;9.10;99.90;;;;;;4914533;28;20407;-74
2022/05/03 05:35:36;;;;;;;1999.90;999.90;;;9.20;99.90;;;;;;4914211;28;20468;-73
2022/05/03 05:38:02;;;;;;;1999.90;999.90;;;9.20;99.90;;;;;;4914614;28;20176;-73
2022/05/03 05:40:28;;;;;;;1999.90;999.90;;;9.20;99.90;;;;;;4914424;28;20952;-73
2022/05/03 05:42:54;;;;;;;1999.90;999.90;;;9.20;99.90;;;;;;4914313;29;20407;-73
2022/05/03 05:45:19;;;;;;;1999.90;999.90;;;9.20;99.90;;;;;;4913797;28;20235;-72
2022/05/03 05:47:45;;;;;;;1999.90;999.90;;;9.20;99.90;;;;;;4914131;28;20985;-73
2022/05/03 05:50:11;;;;;;;1999.90;999.90;;;9.20;99.90;;;;;;4914334;28;20175;-73
2022/05/03 05:55:36;;;;;;;1999.90;999.90;;;9.30;99.90;;;;;;4924592;28;20431;-72
2022/05/03 05:58:03;;;;;;;1999.90;999.90;;;9.30;99.90;;;;;;4914249;28;20894;-73
2022/05/03 06:00:29;;;;;;;1999.90;999.90;;;9.40;99.90;;;;;;4914223;28;20458;-73
2022/05/03 06:02:54;;;;;;;1999.90;999.90;;;9.50;99.90;;;;;;4914061;28;20448;-73
2022/05/03 06:05:20;;;;;;;1999.90;999.90;;;9.50;99.90;;;;;;4913732;28;20218;-73
2022/05/03 06:07:45;;;;;;;1999.90;999.90;;;9.60;99.90;;;;;;4914065;28;20175;-74
2022/05/03 06:10:11;;;;;;;1999.90;999.90;;;9.70;99.90;;;;;;4914030;28;20166;-73
2022/05/03 06:12:37;;;;;;;1999.90;999.90;;;9.70;99.90;;;;;;4914035;28;20168;-73
2022/05/03 06:15:02;;;;;;;1999.90;999.90;;;9.70;99.90;;;;;;4913542;28;20191;-73
2022/05/03 06:17:28;;;;;;;1999.90;999.90;;;9.80;99.90;;;;;;4913917;28;20179;-73
2022/05/03 06:19:54;;;;;;;1999.90;999.90;;;9.80;99.90;;;;;;4913832;28;20628;-74
2022/05/03 06:22:20;;;;;;;1999.90;999.90;;;9.90;99.90;;;;;;4913877;28;20222;-73
2022/05/03 06:24:47;;;;;;;1999.90;999.90;;;10.00;99.90;;;;;;4913300;28;20218;-73
2022/05/03 06:27:14;;;;;;;1999.90;999.90;;;10.10;99.90;;;;;;4913346;28;20858;-73
2022/05/03 06:29:39;;;;;;;1999.90;999.90;;;10.10;99.90;;;;;;4913122;28;20855;-73
2022/05/03 06:32:05;;;;;;;1999.90;999.90;;;10.30;99.90;;;;;;4913770;28;20414;-73
2022/05/03 06:34:31;;;;;;;1999.90;999.90;;;10.40;99.90;;;;;;4913642;28;20253;-73
2022/05/03 06:36:57;;;;;;;1999.90;999.90;;;10.40;99.90;;;;;;4913575;28;20178;-73
2022/05/03 06:39:23;;;;;;;1999.90;999.90;;;10.50;99.90;;;;;;4913666;28;20427;-73
2022/05/03 06:41:48;;;;;;;1999.90;999.90;;;10.50;99.90;;;;;;4913567;28;20415;-73
2022/05/03 06:44:14;;;;;;;1999.90;999.90;;;10.50;99.90;;;;;;4913028;28;20219;-73
2022/05/03 06:46:40;;;;;;;1999.90;999.90;;;10.60;99.90;;;;;;4913555;28;20183;-74
2022/05/03 06:49:05;;;;;;;1999.90;999.90;;;10.70;99.90;;;;;;4913393;28;20631;-74
2022/05/03 06:51:31;;;;;;;1999.90;999.90;;;10.70;99.90;;;;;;4978368;28;20187;-73
2022/05/03 06:53:57;;;;;;;1999.90;999.90;;;10.80;99.90;;;;;;4913185;28;20175;-73
2022/05/03 06:56:22;;;;;;;1999.90;999.90;;;10.90;99.90;;;;;;4913158;28;20538;-73
2022/05/03 06:58:48;;;;;;;1999.90;999.90;;;10.80;99.90;;;;;;4913329;28;20262;-74
2022/05/03 07:01:15;;;;;;;1999.90;999.90;;;11.00;99.90;;;;;;4913317;28;20173;-73
2022/05/03 07:03:42;;;;;;;1999.90;999.90;;;11.10;99.90;;;;;;4902205;28;20173;-73
2022/05/03 07:06:08;;;;;;;1999.90;999.90;;;11.10;99.90;;;;;;4893655;28;20883;-73
2022/05/03 07:08:35;;;;;;;1999.90;999.90;;;11.20;99.90;;;;;;4894160;28;20417;-73
2022/05/03 07:11:01;;;;;;;1999.90;999.90;;;11.30;99.90;;;;;;4894129;28;20406;-74
2022/05/03 07:13:27;;;;;;;1999.90;999.90;;;11.40;99.90;;;;;;4894401;28;20406;-73
2022/05/03 07:15:57;;;;;;;1999.90;999.90;;;11.40;99.90;;;;;;4894132;28;20507;-74
2022/05/03 07:23:52;;;;;;;1999.90;999.90;;;11.80;99.90;;;;;;4894221;29;20409;-73
2022/05/03 07:26:19;;;;;;;1999.90;999.90;;;11.90;99.90;;;;;;4893980;28;20483;-73
2022/05/03 07:28:48;;;;;;;1999.90;999.90;;;12.00;99.90;;;;;;4894129;28;20410;-73
2022/05/03 07:31:18;;;;;;;1999.90;999.90;;;12.00;99.90;;;;;;4894075;28;20409;-73
2022/05/03 07:33:44;;;;;;;1999.90;999.90;;;12.20;99.90;;;;;;4894078;28;20411;-73
2022/05/03 07:36:11;;;;;;;1999.90;999.90;;;12.20;99.90;;;;;;4893819;28;20432;-74
2022/05/03 07:38:38;;;;;;;1999.90;999.90;;;12.40;99.90;;;;;;4894055;28;20457;-73
2022/05/03 07:41:05;;;;;;;1999.90;999.90;;;12.60;99.90;;;;;;4897312;28;20413;-73
2022/05/03 07:43:32;;;;;;;1999.90;999.90;;;12.60;99.90;;;;;;4897401;28;20410;-73
2022/05/03 07:45:57;;;;;;;1999.90;999.90;;;12.60;99.90;;;;;;4896785;28;20909;-74
2022/05/03 07:48:23;;;;;;;1999.90;999.90;;;12.80;99.90;;;;;;4897287;28;20443;-74
2022/05/03 07:50:49;;;;;;;1999.90;999.90;;;13.00;99.90;;;;;;4897295;28;20423;-74
2022/05/03 07:53:14;;;;;;;1999.90;999.90;;;12.90;99.90;;;;;;4897099;28;20615;-74
2022/05/03 07:55:43;;;;;;;1999.90;999.90;;;12.90;99.90;;;;;;4896792;28;20205;-73
2022/05/03 07:58:08;;;;;;;1999.90;999.90;;;12.90;99.90;;;;;;4897255;28;20179;-73
2022/05/03 08:00:34;;;;;;;1999.90;999.90;;;12.90;99.90;;;;;;4897098;28;20421;-74
2022/05/03 08:03:00;;;;;;;1999.90;999.90;;;13.00;99.90;;;;;;4897079;28;20178;-74
2022/05/03 08:05:26;;;;;;;1999.90;999.90;;;13.20;99.90;;;;;;4896499;28;20199;-74
2022/05/03 08:07:51;;;;;;;1999.90;999.90;;;13.40;99.90;;;;;;4896995;28;20657;-74
2022/05/03 08:10:17;;;;;;;1999.90;999.90;;;13.70;99.90;;;;;;4897995;28;20642;-75
2022/05/03 08:12:43;;;;;;;1999.90;999.90;;;14.00;99.90;;;;;;4897800;28;20253;-76
2022/05/03 08:15:09;;;;;;;1999.90;999.90;;;13.90;99.90;;;;;;4897885;28;20284;-75
2022/05/03 08:17:35;;;;;;;1999.90;999.90;;;13.80;99.90;;;;;;4898249;28;20437;-75
2022/05/03 08:20:00;;;;;;;1999.90;999.90;;;13.90;99.90;;;;;;4962685;28;20922;-75
2022/05/03 08:22:26;;;;;;;1999.90;999.90;;;14.10;99.90;;;;;;4897798;28;20184;-74
2022/05/03 08:24:52;;;;;;;1999.90;999.90;;;14.10;99.90;;;;;;4962920;28;20763;-75
2022/05/03 08:27:18;;;;;;;1999.90;999.90;;;14.10;99.90;;;;;;4897978;28;20188;-75
2022/05/03 08:29:44;;;;;;;1999.90;999.90;;;14.10;99.90;;;;;;4898065;28;20508;-75
2022/05/03 08:32:10;;;;;;;1999.90;999.90;;;14.40;99.90;;;;;;4897766;28;20420;-75
2022/05/03 08:34:35;;;;;;;1999.90;999.90;;;14.40;99.90;;;;;;4897686;28;20444;-75
2022/05/03 08:42:35;;;;;;;1999.90;999.90;;;14.60;99.90;;;;;;4897671;29;20397;-75
2022/05/03 08:45:01;;;;;;;1999.90;999.90;;;14.70;99.90;;;;;;4897110;28;20480;-75
2022/05/03 08:47:28;;;;;;;1999.90;999.90;;;14.70;99.90;;;;;;4897986;28;20201;-75
2022/05/03 08:50:11;;;;;;;1999.90;999.90;;;14.80;99.90;;;;;;4897514;28;20419;-75
2022/05/03 08:52:46;;;;;;;1999.90;999.90;;;15.00;99.90;;;;;;4896768;28;20421;-75
2022/05/03 08:55:12;;;;;;;1999.90;999.90;;;15.30;99.90;;;;;;4897604;28;20498;-75
2022/05/03 08:57:38;;;;;;;1999.90;999.90;;;15.60;99.90;;;;;;4897422;28;20409;-75
2022/05/03 09:00:05;;;;;;;1999.90;999.90;;;15.90;99.90;;;;;;4897736;28;20424;-75
2022/05/03 09:02:34;;;;;;;1999.90;999.90;;;16.20;99.90;;;;;;4897900;28;20920;-75
2022/05/03 09:05:01;;;;;;;1999.90;999.90;;;16.50;99.90;;;;;;4897053;28;20493;-76
2022/05/03 09:07:27;;;;;;;1999.90;999.90;;;16.60;99.90;;;;;;4897272;28;20436;-75
2022/05/03 09:09:54;;;;;;;1999.90;999.90;;;16.50;99.90;;;;;;4897322;28;20420;-75
2022/05/03 09:12:31;;;;;;;1999.90;999.90;;;16.30;99.90;;;;;;4897344;28;20417;-75
2022/05/03 09:15:01;;;;;;;1999.90;999.90;;;16.00;99.90;;;;;;4961284;28;20447;-75
2022/05/03 09:17:38;;;;;;;1999.90;999.90;;;15.90;99.90;;;;;;4962146;28;20420;-73
2022/05/03 09:26:10;;;;;;;1999.90;999.90;;;16.30;99.90;;;;;;4896722;29;21043;-74
2022/05/03 09:28:44;;;;;;;1999.90;999.90;;;16.30;99.90;;;;;;4897153;28;20477;-74
2022/05/03 09:31:09;;;;;;;1999.90;999.90;;;16.20;99.90;;;;;;4896697;28;20428;-74
2022/05/03 09:33:37;;;;;;;1999.90;999.90;;;16.40;99.90;;;;;;4896835;28;20411;-74
2022/05/03 09:36:10;;;;;;;1999.90;999.90;;;16.60;99.90;;;;;;4896401;28;20200;-75
2022/05/03 09:38:50;;;;;;;1999.90;999.90;;;16.80;99.90;;;;;;4961776;28;20430;-74
2022/05/03 09:41:16;;;;;;;1999.90;999.90;;;17.00;99.90;;;;;;4897024;28;20463;-75
2022/05/03 09:44:05;;;;;;;1999.90;999.90;;;17.20;99.90;;;;;;4897123;28;20415;-74
2022/05/03 09:46:48;;;;;;;1999.90;999.90;;;17.60;99.90;;;;;;4950066;23;20518;-67
2022/05/03 09:49:14;;;;;;;1999.90;999.90;;;17.60;98.10;;;;;;4912148;28;20644;-67
2022/05/03 09:51:40;;;;;;;1999.90;999.90;;;17.60;97.10;;;;;;4913579;28;20886;-67
2022/05/03 09:54:05;;;;;;;1999.90;999.90;;;17.70;96.70;;;;;;4913867;28;20252;-67
2022/05/03 09:56:33;;;;;;;1999.90;999.90;;;17.90;94.80;;;;;;4913374;29;20231;-67
2022/05/03 09:59:04;;;;;;;1999.90;999.90;;;17.80;96.70;;;;;;4914021;28;20166;-67
2022/05/03 10:01:31;;;;;;;1999.90;999.90;;;18.00;97.80;;;;;;4913720;28;20475;-67
2022/05/03 10:03:57;;;;;;;1999.90;999.90;;;18.40;95.10;;;;;;4913560;28;20405;-67
2022/05/03 10:06:23;;;;;;;1999.90;999.90;;;18.70;93.70;;;;;;4913688;28;20434;-67
2022/05/03 10:08:49;;;;;;;1999.90;999.90;;;18.70;90.10;;;;;;4914056;28;20478;-67
2022/05/03 10:11:18;;;;;;;1999.90;999.90;;;18.50;91.10;;;;;;4913240;28;20972;-67
2022/05/03 10:13:45;;;;;;;1999.90;999.90;;;18.30;94.00;;;;;;4913770;28;20549;-67
2022/05/03 10:21:50;;;;;;;1999.90;999.90;;;17.90;86.90;;;;;;4913525;29;20439;-67
2022/05/03 10:24:17;;;;;;;1999.90;999.90;;;18.00;93.60;;;;;;4912860;28;20416;-66
2022/05/03 10:26:52;;;;;;;1999.90;999.90;;;18.30;90.50;;;;;;4913521;28;20520;-67
2022/05/03 10:29:38;;;;;;;1999.90;999.90;;;18.40;89.70;;;;;;4913353;28;20419;-67
2022/05/03 10:32:07;;;;;;;1999.90;999.90;;;18.20;96.50;;;;;;4912907;28;20961;-67
2022/05/03 10:34:59;;;;;;;1999.90;999.90;;;18.20;87.30;;;;;;4912864;28;20414;-67
2022/05/03 10:37:34;;;;;;;1999.90;999.90;;;18.30;91.50;;;;;;4913181;28;20426;-67
2022/05/03 10:40:12;;;;;;;1999.90;999.90;;;18.40;89.40;;;;;;4913018;28;20495;-67
2022/05/03 10:42:37;;;;;;;1999.90;999.90;;;18.70;79.50;;;;;;4913124;28;20916;-67
2022/05/03 10:45:11;;;;;;;1999.90;999.90;;;18.80;80.40;;;;;;4912433;28;20465;-67
2022/05/03 10:47:49;;;;;;;1999.90;999.90;;;18.80;84.70;;;;;;4912139;28;20275;-67
2022/05/03 10:50:15;;;;;;;1999.90;999.90;;;18.60;85.80;;;;;;4913125;28;20412;-67
2022/05/03 10:53:06;;;;;;;1999.90;999.90;;;18.60;77.30;;;;;;4912978;29;20415;-67
2022/05/03 10:55:38;;;;;;;1999.90;999.90;;;18.80;77.40;;;;;;4912101;28;20434;-68
2022/05/03 10:58:19;;;;;;;1999.90;999.90;;;19.30;78.70;;;;;;4912893;28;20415;-68
2022/05/03 11:01:23;;;;;;;1999.90;999.90;;;19.30;67.70;;;;;;4912626;28;20418;-68
2022/05/03 11:03:54;;;;;;;1999.90;999.90;;;19.20;73.00;;;;;;4912935;28;20461;-68
2022/05/03 11:06:20;;;;;;;1999.90;999.90;;;19.00;63.60;;;;;;4911956;29;20487;-68
2022/05/03 11:09:18;;;;;;;1999.90;999.90;;;19.00;64.00;;;;;;4912319;29;20793;-68
2022/05/03 11:11:43;;;;;;;1999.90;999.90;;;19.00;61.40;;;;;;4912760;28;20181;-68
2022/05/03 11:16:47;;;;;;;1999.90;999.90;;;19.90;69.80;;;;;;4912402;28;20201;-68
2022/05/03 11:19:17;;;;;;;1999.90;999.90;;;20.00;63.20;;;;;;4912619;28;21122;-68
2022/05/03 11:21:45;;;;;;;1999.90;999.90;;;19.50;57.40;;;;;;4912657;28;20838;-68
2022/05/03 11:24:30;;;;;;;1999.90;999.90;;;19.20;57.30;;;;;;4911856;28;20436;-68
2022/05/03 11:27:05;;;;;;;1999.90;999.90;;;19.10;60.60;;;;;;4912821;28;20410;-68
2022/05/03 11:29:55;;;;;;;1999.90;999.90;;;19.00;66.80;;;;;;4912764;28;20599;-68
2022/05/03 11:32:32;;;;;;;1999.90;999.90;;;19.30;60.40;;;;;;4909347;28;20422;-68
2022/05/03 11:35:05;;;;;;;1999.90;999.90;;;19.90;61.40;;;;;;4912393;28;20430;-68
2022/05/03 11:37:33;;;;;;;1999.90;999.90;;;20.30;52.80;;;;;;4912657;28;20943;-68
2022/05/03 11:40:20;;;;;;;1999.90;999.90;;;20.60;51.40;;;;;;4912151;28;20931;-68
2022/05/03 11:42:46;;;;;;;1999.90;999.90;;;20.60;47.60;;;;;;4912550;28;20411;-68
2022/05/03 11:45:14;;;;;;;1999.90;999.90;;;20.70;48.00;;;;;;4911783;28;21000;-68
2022/05/03 11:47:47;;;;;;;1999.90;999.90;;;21.00;52.10;;;;;;4912281;28;20411;-68
2022/05/03 11:55:58;;;;;;;1999.90;999.90;;;21.10;49.70;;;;;;4912479;28;20941;-68
2022/05/03 11:55:59;;;;;;;1999.90;999.90;;;22.00;43.60;;;;;;4912047;29;20435;-68
2022/05/03 11:58:27;;;;;;;1999.90;999.90;;;22.20;48.00;;;;;;4912316;28;20484;-68
2022/05/03 12:00:52;;;;;;;1999.90;999.90;;;22.90;41.10;;;;;;4911696;28;20424;-67
2022/05/03 12:03:18;;;;;;;1999.90;999.90;;;23.50;44.70;;;;;;4912320;28;20386;-67
2022/05/03 12:06:04;;;;;;;1999.90;999.90;;;23.70;37.10;;;;;;4911984;28;20278;-68
2022/05/03 12:08:31;;;;;;;1999.90;999.90;;;24.10;42.70;;;;;;4911794;28;20184;-68
2022/05/03 12:10:57;;;;;;;1999.90;999.90;;;24.60;39.70;;;;;;4912059;28;20778;-68
2022/05/03 12:13:22;;;;;;;1999.90;999.90;;;25.10;32.80;;;;;;4912242;28;20394;-67
2022/05/03 12:15:56;;;;;;;1999.90;999.90;;;25.80;32.50;;;;;;4911371;28;20196;-68
2022/05/03 12:18:28;;;;;;;1999.90;999.90;;;26.10;28.60;;;;;;4912077;28;20199;-68
2022/05/03 12:21:03;;;;;;;1999.90;999.90;;;26.50;29.60;;;;;;4912031;28;20413;-68
2022/05/03 12:23:34;;;;;;;1999.90;999.90;;;26.00;25.30;;;;;;4911808;28;20408;-67
2022/05/03 12:26:13;;;;;;;1999.90;999.90;;;25.50;24.00;;;;;;4911989;28;20435;-67
2022/05/03 12:28:41;;;;;;;1999.90;999.90;;;25.10;24.50;;;;;;4915293;28;20818;-68
2022/05/03 12:31:08;;;;;;;1999.90;999.90;;;25.40;23.30;;;;;;4914682;28;20387;-68
2022/05/03 12:33:48;;;;;;;1999.90;999.90;;;25.70;23.60;;;;;;4915159;28;20412;-68
2022/05/03 12:36:39;;;;;;;1999.90;999.90;;;25.60;24.70;;;;;;4914776;28;20410;-68
2022/05/03 12:39:22;;;;;;;1999.90;999.90;;;25.50;25.30;;;;;;4914556;28;20835;-67
2022/05/03 12:42:10;;;;;;;1999.90;999.90;;;25.60;24.90;;;;;;4915065;28;20452;-68
2022/05/03 12:44:51;;;;;;;1999.90;999.90;;;25.50;27.60;;;;;;4913262;28;20546;-68
2022/05/03 12:47:17;;;;;;;1999.90;999.90;;;25.10;21.20;;;;;;4910723;28;20401;-67
2022/05/03 12:49:43;;;;;;;1999.90;999.90;;;24.80;25.00;;;;;;4913919;28;20413;-68
2022/05/03 12:52:09;;;;;;;1999.90;999.90;;;24.90;24.00;;;;;;4913884;28;20172;-68
2022/05/03 12:54:48;;;;;;;1999.90;999.90;;;24.80;23.20;;;;;;4913882;28;20412;-68
2022/05/03 12:59:59;;;;;;;1999.90;999.90;;;25.50;22.00;;;;;;4913597;29;20412;-68
2022/05/03 13:02:25;;;;;;;1999.90;999.90;;;25.60;25.60;;;;;;4914455;28;20500;-67